ADDS METAR Data INFO
IDs: Format: Raw Decoded Include TAF

Data at: 0737 UTC 21 Jul 2018

PASI 210653Z 33013KT 10SM OVC021 14/11 A3030 RMK AO2 SLP262 T01390111
PASI 210553Z 33012KT 10SM OVC021 14/11 A3030 RMK AO2 SLP261 T01390111 10156 20139 51008
PASI 210453Z 33013KT 10SM OVC022 14/12 A3030 RMK AO2 SLP259 T01390117
PASI 210353Z 33014KT 10SM OVC023 14/12 A3029 RMK AO2 SLP258 T01440117
PASI 210253Z 31014KT 10SM SCT020 OVC025 14/12 A3028 RMK AO2 SLP253 T01440117 58004
PASI 210153Z 31014KT 10SM FEW020 OVC026 15/12 A3028 RMK AO2 SLP255 T01500117
PASI 210053Z 33013KT 10SM OVC026 16/12 A3029 RMK AO2 SLP256 T01560117
PASI 202353Z 33013KT 10SM OVC026 16/11 A3029 RMK AO2 SLP257 T01560111 10161 20139 50001
PASI 202253Z 33013KT 10SM OVC025 16/11 A3029 RMK AO2 SLP258 T01560111
PASI 202153Z 33013KT 10SM OVC024 16/12 A3029 RMK AO2 SLP256 T01560117
PASI 202053Z 33011KT 10SM OVC023 15/12 A3029 RMK AO2 SLP257 T01500117 55000
PASI 201953Z 32012KT 10SM OVC024 14/11 A3029 RMK AO2 SLP256 T01440111
PASI 201853Z 32012KT 10SM OVC022 14/12 A3028 RMK AO2 SLP255 T01440117
PASI 201753Z 33010KT 10SM OVC021 14/11 A3029 RMK AO2 SLP256 T01390111 10144 20133 53002
PASI 201653Z 01010KT 10SM OVC024 14/10 A3028 RMK AO2 SLP255 T01440100
PASI 201553Z 34010KT 10SM BKN015 OVC026 14/11 A3028 RMK AO2 SLP255 T01390111
PASI 201453Z 32008KT 10SM OVC024 13/11 A3028 RMK AO2 SLP255 T01330111 51001
PASI 201353Z 32010KT 10SM OVC024 13/11 A3028 RMK AO2 SLP255 T01330106
PASI 201253Z 34008KT 10SM OVC023 13/11 A3028 RMK AO2 SLP254 T01330106
PASI 201153Z 33009KT 10SM OVC025 14/11 A3028 RMK AO2 SLP254 70013 T01390106 10144 20139 53001
PASI 201053Z 33008KT 10SM OVC027 14/11 A3028 RMK AO2 SLP253 T01390111
PASI 200953Z 33008KT 10SM OVC028 14/11 A3028 RMK AO2 SLP253 T01390111
PASI 200853Z 32009KT 10SM OVC029 14/11 A3028 RMK AO2 SLP253 T01390106 401560117 52002
PASI 200753Z 32007KT 10SM OVC027 14/11 A3028 RMK AO2 SLP253 T01390111
PASI 200653Z 33008KT 10SM OVC028 14/11 A3027 RMK AO2 SLP250 T01390111
PASI 200553Z 34007KT 10SM OVC036 14/11 A3027 RMK AO2 SLP250 T01440106 10150 20144 53004
PASI 200453Z 33006KT 10SM OVC034 14/12 A3027 RMK AO2 SLP249 T01440117
PASI 200353Z 32009KT 10SM OVC031 14/12 A3026 RMK AO2 SLP247 T01440117
PASI 200343Z 32009KT 10SM OVC031 14/12 A3026 RMK AO2 T01440117
PASI 200253Z 32011KT 10SM OVC029 14/11 A3026 RMK AO2 SLP247 T01440111 56001
PASI 200153Z 31009KT 10SM BKN026 BKN030 15/11 A3026 RMK AO2 SLP247 T01500111
PASI 200053Z 31006KT 10SM OVC025 14/12 A3026 RMK AO2 SLP247 T01440117
PASI 200026Z 31007KT 10SM BKN025 OVC031 15/12 A3026 RMK AO2 T01500117
PASI 200012Z 32007KT 10SM SCT024 OVC031 15/12 A3026 RMK AO2 T01500117
PASI 192353Z 32006KT 10SM OVC027 14/12 A3026 RMK AO2 SLP248 60000 T01440122 10156 20122 53005
PASI 192322Z 31009KT 10SM SCT019 BKN028 OVC033 14/12 A3026 RMK AO2 T01440122
PASI 192253Z 26007KT 10SM SCT024 BKN031 OVC040 15/12 A3026 RMK AO2 SLP246 T01500117
PASI 192153Z 31007KT 10SM OVC038 15/12 A3025 RMK AO2 SLP243 T01500117
PASI 192053Z 33008KT 10SM OVC035 14/12 A3025 RMK AO2 SLP243 60000 T01440122 56003
PASI 191953Z 30006KT 10SM FEW026 OVC038 14/13 A3025 RMK AO2 SLP243 T01390128